Check out our new PWSWeather beta!
PWSweather.com
Personal Weather Stations
Station Observations
KNCGREEN1000
Bell Orchard Drive, Greensboro, NC 27455

Bell Orchard DriveGreensboro, NC 27455

Lat: 36.132, Lon: -79.8

Elevation: 876

Station Type: Acurite Atlas

Http://www.gilhutcheson.com

High Low Average
Temperature 70.9°F21.6°C 49.7°F9.8°C 63.9°F17.7°C
Dew Point 64.2°F17.9°C 30.1°F-1.1°C 52.2°F11.2°C
Winds 16.0 mph 25.7 kmh Calm Calm 5.0 mph SSW8.0 kmh SSW
Wind Gusts -- -- --
Humidity 97% 41% 68%
Pressure 29.87 in1011.5 mb 29.72 in1006.4 mb -
Precipitation 0.02 in0.5 mm - -
Hour Temp Dew Point Humidity Winds Wind Gusts Pressure Precip Precip Rate Daily Precip Total
12:02 AM 65.1°F18.4°C 64.2°F17.9°C 97% 6.0 mph S9.7 kmh S -- 29.87 in1011.5 mb 0.01 in0.3 mm 0.30 in7.6 mm 0.01 in0.3 mm
12:07 AM 65.1°F18.4°C 64.2°F17.9°C 97% 4.0 mph S6.4 kmh S -- 29.86 in1011.2 mb 0.01 in0.3 mm 0.00 in0.0 mm 0.01 in0.3 mm
12:12 AM 65.2°F18.4°C 63.9°F17.7°C 96% 5.0 mph SW8.0 kmh SW -- 29.86 in1011.2 mb 0.01 in0.3 mm 0.00 in0.0 mm 0.01 in0.3 mm
12:17 AM 65.2°F18.4°C 63.9°F17.7°C 96% 6.0 mph NNW9.7 kmh NNW -- 29.86 in1011.2 mb 0.01 in0.3 mm 0.00 in0.0 mm 0.01 in0.3 mm
12:22 AM 65.2°F18.4°C 63.9°F17.7°C 96% 7.0 mph SSW11.3 kmh SSW -- 29.86 in1011.2 mb 0.01 in0.3 mm 0.00 in0.0 mm 0.01 in0.3 mm
12:27 AM 65.2°F18.4°C 63.9°F17.7°C 96% 6.0 mph SW9.7 kmh SW -- 29.85 in1010.8 mb 0.00 in0.0 mm 0.00 in0.0 mm 0.01 in0.3 mm
12:32 AM 65.3°F18.5°C 64.1°F17.8°C 96% 4.0 mph S6.4 kmh S -- 29.85 in1010.8 mb 0.02 in0.5 mm 0.24 in6.1 mm 0.02 in0.5 mm
12:37 AM 65.3°F18.5°C 64.1°F17.8°C 96% 7.0 mph S11.3 kmh S -- 29.84 in1010.5 mb 0.02 in0.5 mm 0.00 in0.0 mm 0.02 in0.5 mm
12:42 AM 65.2°F18.4°C 63.9°F17.7°C 96% 4.0 mph S6.4 kmh S -- 29.84 in1010.5 mb 0.02 in0.5 mm 0.00 in0.0 mm 0.02 in0.5 mm
12:47 AM 65.1°F18.4°C 63.9°F17.7°C 96% 5.0 mph S8.0 kmh S -- 29.82 in1009.8 mb 0.02 in0.5 mm 0.00 in0.0 mm 0.02 in0.5 mm
12:52 AM 65.1°F18.4°C 63.9°F17.7°C 96% 6.0 mph SSE9.7 kmh SSE -- 29.83 in1010.2 mb 0.02 in0.5 mm 0.00 in0.0 mm 0.02 in0.5 mm
12:57 AM 65.3°F18.5°C 64.1°F17.8°C 96% 8.0 mph S12.9 kmh S -- 29.84 in1010.5 mb 0.02 in0.5 mm 0.00 in0.0 mm 0.02 in0.5 mm
01:02 AM 65.2°F18.4°C 63.9°F17.7°C 96% 8.0 mph S12.9 kmh S -- 29.84 in1010.5 mb 0.02 in0.5 mm 0.00 in0.0 mm 0.02 in0.5 mm
01:07 AM 65.3°F18.5°C 63.8°F17.7°C 95% 6.0 mph S9.7 kmh S -- 29.83 in1010.2 mb 0.02 in0.5 mm 0.00 in0.0 mm 0.02 in0.5 mm
01:12 AM 65.4°F18.6°C 64.0°F17.8°C 95% 4.0 mph SSW6.4 kmh SSW -- 29.84 in1010.5 mb 0.02 in0.5 mm 0.00 in0.0 mm 0.02 in0.5 mm
01:17 AM 65.4°F18.6°C 63.7°F17.6°C 94% 7.0 mph SSW11.3 kmh SSW -- 29.84 in1010.5 mb 0.02 in0.5 mm 0.00 in0.0 mm 0.02 in0.5 mm
01:22 AM 65.5°F18.6°C 63.7°F17.6°C 94% 10.0 mph S16.1 kmh S -- 29.84 in1010.5 mb 0.02 in0.5 mm 0.00 in0.0 mm 0.02 in0.5 mm
01:27 AM 65.5°F18.6°C 63.7°F17.6°C 94% 9.0 mph SW14.5 kmh SW -- 29.83 in1010.2 mb 0.00 in0.0 mm 0.00 in0.0 mm 0.02 in0.5 mm
01:32 AM 65.5°F18.6°C 63.7°F17.6°C 94% 4.0 mph SSW6.4 kmh SSW -- 29.83 in1010.2 mb 0.00 in0.0 mm 0.00 in0.0 mm 0.02 in0.5 mm
01:37 AM 65.3°F18.5°C 63.5°F17.5°C 94% 9.0 mph S14.5 kmh S -- 29.82 in1009.8 mb 0.00 in0.0 mm 0.00 in0.0 mm 0.02 in0.5 mm
01:42 AM 65.3°F18.5°C 63.5°F17.5°C 94% 9.0 mph SSW14.5 kmh SSW -- 29.83 in1010.2 mb 0.00 in0.0 mm 0.00 in0.0 mm 0.02 in0.5 mm
01:47 AM 65.3°F18.5°C 63.5°F17.5°C 94% 9.0 mph S14.5 kmh S -- 29.82 in1009.8 mb 0.00 in0.0 mm 0.00 in0.0 mm 0.02 in0.5 mm
01:52 AM 65.3°F18.5°C 63.5°F17.5°C 94% 9.0 mph SSW14.5 kmh SSW -- 29.82 in1009.8 mb 0.00 in0.0 mm 0.00 in0.0 mm 0.02 in0.5 mm
01:57 AM 65.3°F18.5°C 63.5°F17.5°C 94% 6.0 mph S9.7 kmh S -- 29.83 in1010.2 mb 0.00 in0.0 mm 0.00 in0.0 mm 0.02 in0.5 mm
02:02 AM 65.3°F18.5°C 63.5°F17.5°C 94% 8.0 mph SE12.9 kmh SE -- 29.83 in1010.2 mb 0.00 in0.0 mm 0.00 in0.0 mm 0.02 in0.5 mm
02:07 AM 65.3°F18.5°C 63.2°F17.3°C 93% 5.0 mph SW8.0 kmh SW -- 29.83 in1010.2 mb 0.00 in0.0 mm 0.00 in0.0 mm 0.02 in0.5 mm
02:12 AM 65.5°F18.6°C 63.4°F17.4°C 93% 8.0 mph SSW12.9 kmh SSW -- 29.83 in1010.2 mb 0.00 in0.0 mm 0.00 in0.0 mm 0.02 in0.5 mm
02:17 AM 65.6°F18.7°C 63.6°F17.6°C 93% 8.0 mph SSW12.9 kmh SSW -- 29.83 in1010.2 mb 0.00 in0.0 mm 0.00 in0.0 mm 0.02 in0.5 mm
02:22 AM 65.6°F18.7°C 63.6°F17.6°C 93% 10.0 mph SSW16.1 kmh SSW -- 29.82 in1009.8 mb 0.00 in0.0 mm 0.00 in0.0 mm 0.02 in0.5 mm
02:27 AM 65.7°F18.7°C 63.3°F17.4°C 92% 6.0 mph SW9.7 kmh SW -- 29.82 in1009.8 mb 0.00 in0.0 mm 0.00 in0.0 mm 0.02 in0.5 mm
02:32 AM 65.7°F18.7°C 63.3°F17.4°C 92% 15.0 mph SSW24.1 kmh SSW -- 29.82 in1009.8 mb 0.00 in0.0 mm 0.00 in0.0 mm 0.02 in0.5 mm
02:37 AM 65.7°F18.7°C 63.3°F17.4°C 92% 10.0 mph S16.1 kmh S -- 29.82 in1009.8 mb 0.00 in0.0 mm 0.00 in0.0 mm 0.02 in0.5 mm
02:42 AM 65.6°F18.7°C 63.3°F17.4°C 92% 7.0 mph S11.3 kmh S -- 29.81 in1009.5 mb 0.00 in0.0 mm 0.00 in0.0 mm 0.02 in0.5 mm
02:47 AM 65.6°F18.7°C 63.3°F17.4°C 92% 9.0 mph S14.5 kmh S -- 29.81 in1009.5 mb 0.00 in0.0 mm 0.00 in0.0 mm 0.02 in0.5 mm
02:52 AM 65.7°F18.7°C 63.3°F17.4°C 92% 16.0 mph SSW25.7 kmh SSW -- 29.81 in1009.5 mb 0.00 in0.0 mm 0.00 in0.0 mm 0.02 in0.5 mm
02:57 AM 65.7°F18.7°C 63.3°F17.4°C 92% 11.0 mph S17.7 kmh S -- 29.81 in1009.5 mb 0.00 in0.0 mm 0.00 in0.0 mm 0.02 in0.5 mm
03:02 AM 65.9°F18.8°C 63.4°F17.4°C 92% 4.0 mph SSE6.4 kmh SSE -- 29.80 in1009.1 mb 0.00 in0.0 mm 0.00 in0.0 mm 0.02 in0.5 mm
03:07 AM 65.9°F18.8°C 63.1°F17.3°C 91% 10.0 mph S16.1 kmh S -- 29.80 in1009.1 mb 0.00 in0.0 mm 0.00 in0.0 mm 0.02 in0.5 mm
03:12 AM 66.1°F18.9°C 63.3°F17.4°C 91% 8.0 mph SSW12.9 kmh SSW -- 29.80 in1009.1 mb 0.00 in0.0 mm 0.00 in0.0 mm 0.02 in0.5 mm
03:17 AM 66.2°F19.0°C 63.5°F17.5°C 91% 8.0 mph S12.9 kmh S -- 29.80 in1009.1 mb 0.00 in0.0 mm 0.00 in0.0 mm 0.02 in0.5 mm
03:22 AM 66.2°F19.0°C 63.5°F17.5°C 91% 9.0 mph SE14.5 kmh SE -- 29.79 in1008.8 mb 0.00 in0.0 mm 0.00 in0.0 mm 0.02 in0.5 mm
03:27 AM 66.1°F18.9°C 63.3°F17.4°C 91% 8.0 mph SSW12.9 kmh SSW -- 29.78 in1008.5 mb 0.00 in0.0 mm 0.00 in0.0 mm 0.02 in0.5 mm
03:32 AM 66.2°F19.0°C 63.5°F17.5°C 91% 16.0 mph SSW25.7 kmh SSW -- 29.77 in1008.1 mb 0.00 in0.0 mm 0.00 in0.0 mm 0.02 in0.5 mm
03:37 AM 66.2°F19.0°C 63.5°F17.5°C 91% 10.0 mph S16.1 kmh S -- 29.78 in1008.5 mb 0.00 in0.0 mm 0.00 in0.0 mm 0.02 in0.5 mm
03:42 AM 66.3°F19.1°C 63.7°F17.6°C 91% 10.0 mph S16.1 kmh S -- 29.78 in1008.5 mb 0.00 in0.0 mm 0.00 in0.0 mm 0.02 in0.5 mm
03:47 AM 66.2°F19.0°C 63.5°F17.5°C 91% 11.0 mph S17.7 kmh S -- 29.77 in1008.1 mb 0.00 in0.0 mm 0.00 in0.0 mm 0.02 in0.5 mm
03:52 AM 66.2°F19.0°C 63.5°F17.5°C 91% 9.0 mph SSW14.5 kmh SSW -- 29.77 in1008.1 mb 0.00 in0.0 mm 0.00 in0.0 mm 0.02 in0.5 mm
03:57 AM 66.2°F19.0°C 63.5°F17.5°C 91% 14.0 mph S22.5 kmh S -- 29.77 in1008.1 mb 0.00 in0.0 mm 0.00 in0.0 mm 0.02 in0.5 mm
04:02 AM 66.2°F19.0°C 63.5°F17.5°C 91% 11.0 mph S17.7 kmh S -- 29.76 in1007.8 mb 0.00 in0.0 mm 0.00 in0.0 mm 0.02 in0.5 mm
04:07 AM 66.4°F19.1°C 63.7°F17.6°C 91% 10.0 mph SW16.1 kmh SW -- 29.76 in1007.8 mb 0.00 in0.0 mm 0.00 in0.0 mm 0.02 in0.5 mm
04:12 AM 66.3°F19.1°C 63.7°F17.6°C 91% 6.0 mph SSE9.7 kmh SSE -- 29.76 in1007.8 mb 0.00 in0.0 mm 0.00 in0.0 mm 0.02 in0.5 mm
04:17 AM 66.3°F19.1°C 63.7°F17.6°C 91% 6.0 mph ESE9.7 kmh ESE -- 29.75 in1007.5 mb 0.00 in0.0 mm 0.00 in0.0 mm 0.02 in0.5 mm
04:22 AM 66.5°F19.2°C 63.8°F17.7°C 91% 5.0 mph S8.0 kmh S -- 29.76 in1007.8 mb 0.00 in0.0 mm 0.00 in0.0 mm 0.02 in0.5 mm
04:27 AM 66.5°F19.2°C 63.8°F17.7°C 91% 13.0 mph SSW20.9 kmh SSW -- 29.76 in1007.8 mb 0.00 in0.0 mm 0.00 in0.0 mm 0.02 in0.5 mm
04:32 AM 66.6°F19.2°C 63.5°F17.5°C 90% 13.0 mph SW20.9 kmh SW -- 29.75 in1007.5 mb 0.00 in0.0 mm 0.00 in0.0 mm 0.02 in0.5 mm
04:37 AM 66.7°F19.3°C 63.7°F17.6°C 90% 9.0 mph S14.5 kmh S -- 29.75 in1007.5 mb 0.00 in0.0 mm 0.00 in0.0 mm 0.02 in0.5 mm
04:42 AM 66.7°F19.3°C 64.0°F17.8°C 91% 8.0 mph S12.9 kmh S -- 29.75 in1007.5 mb 0.00 in0.0 mm 0.00 in0.0 mm 0.02 in0.5 mm
04:47 AM 66.5°F19.2°C 63.8°F17.7°C 91% 8.0 mph S12.9 kmh S -- 29.75 in1007.5 mb 0.00 in0.0 mm 0.00 in0.0 mm 0.02 in0.5 mm
04:52 AM 66.6°F19.2°C 63.5°F17.5°C 90% 13.0 mph S20.9 kmh S -- 29.75 in1007.5 mb 0.00 in0.0 mm 0.00 in0.0 mm 0.02 in0.5 mm
04:57 AM 66.7°F19.3°C 63.7°F17.6°C 90% 10.0 mph SSW16.1 kmh SSW -- 29.75 in1007.5 mb 0.00 in0.0 mm 0.00 in0.0 mm 0.02 in0.5 mm
05:02 AM 66.8°F19.3°C 63.7°F17.6°C 90% 4.0 mph S6.4 kmh S -- 29.75 in1007.5 mb 0.00 in0.0 mm 0.00 in0.0 mm 0.02 in0.5 mm
05:07 AM 66.8°F19.3°C 63.7°F17.6°C 90% 7.0 mph S11.3 kmh S -- 29.75 in1007.5 mb 0.00 in0.0 mm 0.00 in0.0 mm 0.02 in0.5 mm
05:12 AM 66.8°F19.3°C 63.7°F17.6°C 90% 6.0 mph SSW9.7 kmh SSW -- 29.75 in1007.5 mb 0.00 in0.0 mm 0.00 in0.0 mm 0.02 in0.5 mm
05:17 AM 66.9°F19.4°C 63.9°F17.7°C 90% 13.0 mph SW20.9 kmh SW -- 29.75 in1007.5 mb 0.00 in0.0 mm 0.00 in0.0 mm 0.02 in0.5 mm
05:22 AM 66.9°F19.4°C 63.9°F17.7°C 90% 9.0 mph S14.5 kmh S -- 29.75 in1007.5 mb 0.00 in0.0 mm 0.00 in0.0 mm 0.02 in0.5 mm
05:27 AM 66.9°F19.4°C 63.6°F17.6°C 89% 11.0 mph S17.7 kmh S -- 29.74 in1007.1 mb 0.00 in0.0 mm 0.00 in0.0 mm 0.02 in0.5 mm
05:32 AM 66.9°F19.4°C 63.6°F17.6°C 89% 10.0 mph SSW16.1 kmh SSW -- 29.75 in1007.5 mb 0.00 in0.0 mm 0.00 in0.0 mm 0.02 in0.5 mm
05:37 AM 67.0°F19.4°C 63.6°F17.6°C 89% 9.0 mph WSW14.5 kmh WSW -- 29.76 in1007.8 mb 0.00 in0.0 mm 0.00 in0.0 mm 0.02 in0.5 mm
05:42 AM 66.9°F19.4°C 63.6°F17.6°C 89% 8.0 mph SW12.9 kmh SW -- 29.76 in1007.8 mb 0.00 in0.0 mm 0.00 in0.0 mm 0.02 in0.5 mm
05:47 AM 67.0°F19.4°C 63.2°F17.3°C 88% 11.0 mph SSW17.7 kmh SSW -- 29.76 in1007.8 mb 0.00 in0.0 mm 0.00 in0.0 mm 0.02 in0.5 mm
05:52 AM 67.1°F19.5°C 63.4°F17.4°C 88% 7.0 mph S11.3 kmh S -- 29.76 in1007.8 mb 0.00 in0.0 mm 0.00 in0.0 mm 0.02 in0.5 mm
05:57 AM 67.0°F19.4°C 63.2°F17.3°C 88% 5.0 mph SW8.0 kmh SW -- 29.76 in1007.8 mb 0.00 in0.0 mm 0.00 in0.0 mm 0.02 in0.5 mm
06:02 AM 66.9°F19.4°C 63.6°F17.6°C 89% 4.0 mph SW6.4 kmh SW -- 29.76 in1007.8 mb 0.00 in0.0 mm 0.00 in0.0 mm 0.02 in0.5 mm
06:07 AM 66.9°F19.4°C 63.6°F17.6°C 89% 4.0 mph SW6.4 kmh SW -- 29.76 in1007.8 mb 0.00 in0.0 mm 0.00 in0.0 mm 0.02 in0.5 mm
06:12 AM 66.8°F19.3°C 63.4°F17.4°C 89% 9.0 mph SSW14.5 kmh SSW -- 29.75 in1007.5 mb 0.00 in0.0 mm 0.00 in0.0 mm 0.02 in0.5 mm
06:17 AM 66.9°F19.4°C 63.6°F17.6°C 89% 11.0 mph SSW17.7 kmh SSW -- 29.74 in1007.1 mb 0.00 in0.0 mm 0.00 in0.0 mm 0.02 in0.5 mm
06:22 AM 66.9°F19.4°C 63.6°F17.6°C 89% 8.0 mph SW12.9 kmh SW -- 29.74 in1007.1 mb 0.00 in0.0 mm 0.00 in0.0 mm 0.02 in0.5 mm
06:27 AM 66.9°F19.4°C 63.2°F17.3°C 88% 11.0 mph S17.7 kmh S -- 29.74 in1007.1 mb 0.00 in0.0 mm 0.00 in0.0 mm 0.02 in0.5 mm
06:32 AM 66.8°F19.3°C 63.0°F17.2°C 88% 10.0 mph SSW16.1 kmh SSW -- 29.74 in1007.1 mb 0.00 in0.0 mm 0.00 in0.0 mm 0.02 in0.5 mm
06:37 AM 66.9°F19.4°C 63.2°F17.3°C 88% 7.0 mph S11.3 kmh S -- 29.74 in1007.1 mb 0.00 in0.0 mm 0.00 in0.0 mm 0.02 in0.5 mm
06:42 AM 66.9°F19.4°C 63.2°F17.3°C 88% 6.0 mph S9.7 kmh S -- 29.74 in1007.1 mb 0.00 in0.0 mm 0.00 in0.0 mm 0.02 in0.5 mm
06:47 AM 66.9°F19.4°C 63.2°F17.3°C 88% 9.0 mph S14.5 kmh S -- 29.74 in1007.1 mb 0.00 in0.0 mm 0.00 in0.0 mm 0.02 in0.5 mm
06:52 AM 66.9°F19.4°C 63.2°F17.3°C 88% 3.0 mph S4.8 kmh S -- 29.74 in1007.1 mb 0.00 in0.0 mm 0.00 in0.0 mm 0.02 in0.5 mm
06:57 AM 66.8°F19.3°C 63.0°F17.2°C 88% 9.0 mph S14.5 kmh S -- 29.74 in1007.1 mb 0.00 in0.0 mm 0.00 in0.0 mm 0.02 in0.5 mm
07:02 AM 66.7°F19.3°C 63.0°F17.2°C 88% 5.0 mph S8.0 kmh S -- 29.74 in1007.1 mb 0.00 in0.0 mm 0.00 in0.0 mm 0.02 in0.5 mm
07:07 AM 66.8°F19.3°C 62.7°F17.1°C 87% 11.0 mph SSW17.7 kmh SSW -- 29.74 in1007.1 mb 0.00 in0.0 mm 0.00 in0.0 mm 0.02 in0.5 mm
07:12 AM 66.7°F19.3°C 62.7°F17.1°C 87% 9.0 mph SSW14.5 kmh SSW -- 29.74 in1007.1 mb 0.00 in0.0 mm 0.00 in0.0 mm 0.02 in0.5 mm
07:17 AM 66.9°F19.4°C 62.9°F17.2°C 87% 15.0 mph SSW24.1 kmh SSW -- 29.74 in1007.1 mb 0.00 in0.0 mm 0.00 in0.0 mm 0.02 in0.5 mm
07:22 AM 67.0°F19.4°C 62.6°F17.0°C 86% 4.0 mph SW6.4 kmh SW -- 29.74 in1007.1 mb 0.00 in0.0 mm 0.00 in0.0 mm 0.02 in0.5 mm
07:27 AM 67.0°F19.4°C 62.6°F17.0°C 86% 8.0 mph S12.9 kmh S -- 29.74 in1007.1 mb 0.00 in0.0 mm 0.00 in0.0 mm 0.02 in0.5 mm
07:32 AM 66.9°F19.4°C 62.6°F17.0°C 86% 8.0 mph SW12.9 kmh SW -- 29.73 in1006.8 mb 0.00 in0.0 mm 0.00 in0.0 mm 0.02 in0.5 mm
07:37 AM 66.9°F19.4°C 62.6°F17.0°C 86% 4.0 mph SW6.4 kmh SW -- 29.74 in1007.1 mb 0.00 in0.0 mm 0.00 in0.0 mm 0.02 in0.5 mm
07:42 AM 66.9°F19.4°C 62.6°F17.0°C 86% 9.0 mph SSE14.5 kmh SSE -- 29.74 in1007.1 mb 0.00 in0.0 mm 0.00 in0.0 mm 0.02 in0.5 mm
07:47 AM 66.9°F19.4°C 62.6°F17.0°C 86% 9.0 mph S14.5 kmh S -- 29.73 in1006.8 mb 0.00 in0.0 mm 0.00 in0.0 mm 0.02 in0.5 mm
07:52 AM 67.0°F19.4°C 62.2°F16.8°C 85% 12.0 mph S19.3 kmh S -- 29.73 in1006.8 mb 0.00 in0.0 mm 0.00 in0.0 mm 0.02 in0.5 mm
07:57 AM 67.1°F19.5°C 62.7°F17.1°C 86% 6.0 mph SSW9.7 kmh SSW -- 29.73 in1006.8 mb 0.00 in0.0 mm 0.00 in0.0 mm 0.02 in0.5 mm
08:02 AM 67.0°F19.4°C 62.6°F17.0°C 86% 5.0 mph S8.0 kmh S -- 29.74 in1007.1 mb 0.00 in0.0 mm 0.00 in0.0 mm 0.02 in0.5 mm
08:07 AM 67.2°F19.6°C 62.9°F17.2°C 86% 7.0 mph S11.3 kmh S -- 29.74 in1007.1 mb 0.00 in0.0 mm 0.00 in0.0 mm 0.02 in0.5 mm
08:12 AM 67.2°F19.6°C 62.6°F17.0°C 85% 8.0 mph S12.9 kmh S -- 29.73 in1006.8 mb 0.00 in0.0 mm 0.00 in0.0 mm 0.02 in0.5 mm
08:17 AM 67.2°F19.6°C 62.9°F17.2°C 86% 7.0 mph S11.3 kmh S -- 29.73 in1006.8 mb 0.00 in0.0 mm 0.00 in0.0 mm 0.02 in0.5 mm
08:22 AM 67.2°F19.6°C 62.6°F17.0°C 85% 8.0 mph SSW12.9 kmh SSW -- 29.73 in1006.8 mb 0.00 in0.0 mm 0.00 in0.0 mm 0.02 in0.5 mm
08:27 AM 67.3°F19.6°C 62.6°F17.0°C 85% 5.0 mph SSW8.0 kmh SSW -- 29.73 in1006.8 mb 0.00 in0.0 mm 0.00 in0.0 mm 0.02 in0.5 mm
08:32 AM 67.1°F19.5°C 62.4°F16.9°C 85% 10.0 mph S16.1 kmh S -- 29.74 in1007.1 mb 0.00 in0.0 mm 0.00 in0.0 mm 0.02 in0.5 mm
08:37 AM 67.2°F19.6°C 62.9°F17.2°C 86% 7.0 mph SSE11.3 kmh SSE -- 29.75 in1007.5 mb 0.00 in0.0 mm 0.00 in0.0 mm 0.02 in0.5 mm
08:42 AM 67.1°F19.5°C 62.4°F16.9°C 85% 7.0 mph S11.3 kmh S -- 29.74 in1007.1 mb 0.00 in0.0 mm 0.00 in0.0 mm 0.02 in0.5 mm
08:47 AM 67.1°F19.5°C 62.4°F16.9°C 85% 9.0 mph SSW14.5 kmh SSW -- 29.74 in1007.1 mb 0.00 in0.0 mm 0.00 in0.0 mm 0.02 in0.5 mm
08:52 AM 67.1°F19.5°C 62.4°F16.9°C 85% 9.0 mph S14.5 kmh S -- 29.75 in1007.5 mb 0.00 in0.0 mm 0.00 in0.0 mm 0.02 in0.5 mm
08:57 AM 67.3°F19.6°C 62.6°F17.0°C 85% 10.0 mph SSW16.1 kmh SSW -- 29.74 in1007.1 mb 0.00 in0.0 mm 0.00 in0.0 mm 0.02 in0.5 mm
09:02 AM 67.3°F19.6°C 62.6°F17.0°C 85% 4.0 mph S6.4 kmh S -- 29.75 in1007.5 mb 0.00 in0.0 mm 0.00 in0.0 mm 0.02 in0.5 mm
09:07 AM 67.4°F19.7°C 62.4°F16.9°C 84% 6.0 mph SW9.7 kmh SW -- 29.75 in1007.5 mb 0.00 in0.0 mm 0.00 in0.0 mm 0.02 in0.5 mm
09:12 AM 67.4°F19.7°C 62.4°F16.9°C 84% 4.0 mph SSE6.4 kmh SSE -- 29.75 in1007.5 mb 0.00 in0.0 mm 0.00 in0.0 mm 0.02 in0.5 mm
09:17 AM 67.4°F19.7°C 62.1°F16.7°C 83% 3.0 mph SSW4.8 kmh SSW -- 29.76 in1007.8 mb 0.00 in0.0 mm 0.00 in0.0 mm 0.02 in0.5 mm
09:22 AM 67.5°F19.7°C 62.1°F16.7°C 83% 3.0 mph SSW4.8 kmh SSW -- 29.75 in1007.5 mb 0.00 in0.0 mm 0.00 in0.0 mm 0.02 in0.5 mm
09:27 AM 67.4°F19.7°C 61.7°F16.5°C 82% 9.0 mph SW14.5 kmh SW -- 29.75 in1007.5 mb 0.00 in0.0 mm 0.00 in0.0 mm 0.02 in0.5 mm
09:32 AM 67.7°F19.8°C 61.9°F16.6°C 82% 5.0 mph S8.0 kmh S -- 29.75 in1007.5 mb 0.00 in0.0 mm 0.00 in0.0 mm 0.02 in0.5 mm
09:37 AM 67.7°F19.8°C 61.6°F16.4°C 81% 5.0 mph SSW8.0 kmh SSW -- 29.76 in1007.8 mb 0.00 in0.0 mm 0.00 in0.0 mm 0.02 in0.5 mm
09:42 AM 67.8°F19.9°C 61.7°F16.5°C 81% 9.0 mph SSW14.5 kmh SSW -- 29.76 in1007.8 mb 0.00 in0.0 mm 0.00 in0.0 mm 0.02 in0.5 mm
09:47 AM 67.9°F19.9°C 61.4°F16.3°C 80% 12.0 mph SSW19.3 kmh SSW -- 29.76 in1007.8 mb 0.00 in0.0 mm 0.00 in0.0 mm 0.02 in0.5 mm
09:52 AM 68.0°F20.0°C 61.6°F16.4°C 80% 5.0 mph SW8.0 kmh SW -- 29.75 in1007.5 mb 0.00 in0.0 mm 0.00 in0.0 mm 0.02 in0.5 mm
09:57 AM 68.0°F20.0°C 61.6°F16.4°C 80% 5.0 mph S8.0 kmh S -- 29.75 in1007.5 mb 0.00 in0.0 mm 0.00 in0.0 mm 0.02 in0.5 mm
10:02 AM 68.0°F20.0°C 61.2°F16.2°C 79% 3.0 mph S4.8 kmh S -- 29.76 in1007.8 mb 0.00 in0.0 mm 0.00 in0.0 mm 0.02 in0.5 mm
10:07 AM 68.2°F20.1°C 61.0°F16.1°C 78% 6.0 mph SSE9.7 kmh SSE -- 29.76 in1007.8 mb 0.00 in0.0 mm 0.00 in0.0 mm 0.02 in0.5 mm
10:17 AM 68.3°F20.2°C 60.8°F16.0°C 77% 4.0 mph SSE6.4 kmh SSE -- 29.76 in1007.8 mb 0.00 in0.0 mm 0.00 in0.0 mm 0.02 in0.5 mm
10:22 AM 68.3°F20.2°C 60.5°F15.8°C 76% 6.0 mph SW9.7 kmh SW -- 29.75 in1007.5 mb 0.00 in0.0 mm 0.00 in0.0 mm 0.02 in0.5 mm
10:27 AM 68.4°F20.2°C 60.5°F15.8°C 76% 6.0 mph S9.7 kmh S -- 29.75 in1007.5 mb 0.00 in0.0 mm 0.00 in0.0 mm 0.02 in0.5 mm
10:32 AM 68.6°F20.3°C 60.3°F15.7°C 75% 4.0 mph S6.4 kmh S -- 29.76 in1007.8 mb 0.00 in0.0 mm 0.00 in0.0 mm 0.02 in0.5 mm
10:37 AM 68.8°F20.4°C 60.4°F15.8°C 75% 3.0 mph S4.8 kmh S -- 29.75 in1007.5 mb 0.00 in0.0 mm 0.00 in0.0 mm 0.02 in0.5 mm
10:42 AM 68.7°F20.4°C 60.1°F15.6°C 74% 11.0 mph WSW17.7 kmh WSW -- 29.76 in1007.8 mb 0.00 in0.0 mm 0.00 in0.0 mm 0.02 in0.5 mm
10:47 AM 68.8°F20.4°C 60.1°F15.6°C 74% 3.0 mph NE4.8 kmh NE -- 29.76 in1007.8 mb 0.00 in0.0 mm 0.00 in0.0 mm 0.02 in0.5 mm
10:52 AM 68.8°F20.4°C 59.7°F15.4°C 73% 1.0 mph E1.6 kmh E -- 29.76 in1007.8 mb 0.00 in0.0 mm 0.00 in0.0 mm 0.02 in0.5 mm
10:57 AM 69.0°F20.6°C 59.2°F15.1°C 71% 10.0 mph S16.1 kmh S -- 29.76 in1007.8 mb 0.00 in0.0 mm 0.00 in0.0 mm 0.02 in0.5 mm
11:02 AM 69.3°F20.7°C 59.0°F15.0°C 70% 7.0 mph S11.3 kmh S -- 29.76 in1007.8 mb 0.00 in0.0 mm 0.00 in0.0 mm 0.02 in0.5 mm
11:07 AM 69.4°F20.8°C 59.2°F15.1°C 70% 4.0 mph W6.4 kmh W -- 29.76 in1007.8 mb 0.00 in0.0 mm 0.00 in0.0 mm 0.02 in0.5 mm
11:12 AM 69.7°F20.9°C 59.4°F15.2°C 70% 3.0 mph S4.8 kmh S -- 29.76 in1007.8 mb 0.00 in0.0 mm 0.00 in0.0 mm 0.02 in0.5 mm
11:17 AM 69.6°F20.9°C 58.1°F14.5°C 67% 4.0 mph S6.4 kmh S -- 29.75 in1007.5 mb 0.00 in0.0 mm 0.00 in0.0 mm 0.02 in0.5 mm
11:22 AM 69.4°F20.8°C 58.4°F14.7°C 68% 6.0 mph SSW9.7 kmh SSW -- 29.75 in1007.5 mb 0.00 in0.0 mm 0.00 in0.0 mm 0.02 in0.5 mm
11:27 AM 69.3°F20.7°C 57.8°F14.3°C 67% 6.0 mph WSW9.7 kmh WSW -- 29.75 in1007.5 mb 0.00 in0.0 mm 0.00 in0.0 mm 0.02 in0.5 mm
11:32 AM 69.7°F20.9°C 57.7°F14.3°C 66% 3.0 mph NW4.8 kmh NW -- 29.75 in1007.5 mb 0.00 in0.0 mm 0.00 in0.0 mm 0.02 in0.5 mm
11:37 AM 70.0°F21.1°C 57.6°F14.2°C 65% 8.0 mph WNW12.9 kmh WNW -- 29.75 in1007.5 mb 0.00 in0.0 mm 0.00 in0.0 mm 0.02 in0.5 mm
11:42 AM 70.6°F21.4°C 57.7°F14.3°C 64% 7.0 mph W11.3 kmh W -- 29.74 in1007.1 mb 0.00 in0.0 mm 0.00 in0.0 mm 0.02 in0.5 mm
11:47 AM 70.6°F21.4°C 57.3°F14.1°C 63% 4.0 mph NNE6.4 kmh NNE -- 29.74 in1007.1 mb 0.00 in0.0 mm 0.00 in0.0 mm 0.02 in0.5 mm
11:52 AM 69.9°F21.1°C 56.7°F13.7°C 63% 3.0 mph W4.8 kmh W -- 29.74 in1007.1 mb 0.00 in0.0 mm 0.00 in0.0 mm 0.02 in0.5 mm
11:57 AM 70.3°F21.3°C 58.0°F14.4°C 65% 1.0 mph NNW1.6 kmh NNW -- 29.74 in1007.1 mb 0.00 in0.0 mm 0.00 in0.0 mm 0.02 in0.5 mm
12:02 PM 69.9°F21.1°C 57.2°F14.0°C 64% 3.0 mph W4.8 kmh W -- 29.75 in1007.5 mb 0.00 in0.0 mm 0.00 in0.0 mm 0.02 in0.5 mm
12:07 PM 69.9°F21.1°C 56.7°F13.7°C 63% 9.0 mph SW14.5 kmh SW -- 29.74 in1007.1 mb 0.00 in0.0 mm 0.00 in0.0 mm 0.02 in0.5 mm
12:12 PM 70.1°F21.2°C 58.6°F14.8°C 67% 3.0 mph W4.8 kmh W -- 29.73 in1006.8 mb 0.00 in0.0 mm 0.00 in0.0 mm 0.02 in0.5 mm
12:17 PM 69.3°F20.7°C 58.6°F14.8°C 69% 6.0 mph WNW9.7 kmh WNW -- 29.74 in1007.1 mb 0.00 in0.0 mm 0.00 in0.0 mm 0.02 in0.5 mm
12:22 PM 70.9°F21.6°C 57.2°F14.0°C 62% 6.0 mph W9.7 kmh W -- 29.73 in1006.8 mb 0.00 in0.0 mm 0.00 in0.0 mm 0.02 in0.5 mm
12:27 PM 70.8°F21.6°C 58.0°F14.4°C 64% 4.0 mph W6.4 kmh W -- 29.73 in1006.8 mb 0.00 in0.0 mm 0.00 in0.0 mm 0.02 in0.5 mm
12:32 PM 70.4°F21.3°C 58.4°F14.7°C 66% 6.0 mph WSW9.7 kmh WSW -- 29.72 in1006.4 mb 0.00 in0.0 mm 0.00 in0.0 mm 0.02 in0.5 mm
12:37 PM 69.8°F21.0°C 57.4°F14.1°C 65% 4.0 mph W6.4 kmh W -- 29.73 in1006.8 mb 0.00 in0.0 mm 0.00 in0.0 mm 0.02 in0.5 mm
12:42 PM 69.8°F21.0°C 57.0°F13.9°C 64% 10.0 mph NW16.1 kmh NW -- 29.72 in1006.4 mb 0.00 in0.0 mm 0.00 in0.0 mm 0.02 in0.5 mm
12:47 PM 69.0°F20.6°C 56.3°F13.5°C 64% 4.0 mph NW6.4 kmh NW -- 29.72 in1006.4 mb 0.00 in0.0 mm 0.00 in0.0 mm 0.02 in0.5 mm
12:52 PM 69.3°F20.7°C 56.5°F13.6°C 64% 4.0 mph NW6.4 kmh NW -- 29.72 in1006.4 mb 0.00 in0.0 mm 0.00 in0.0 mm 0.02 in0.5 mm
12:57 PM 69.4°F20.8°C 55.8°F13.2°C 62% 8.0 mph NW12.9 kmh NW -- 29.72 in1006.4 mb 0.00 in0.0 mm 0.00 in0.0 mm 0.02 in0.5 mm
01:02 PM 69.6°F20.9°C 55.5°F13.1°C 61% 11.0 mph W17.7 kmh W -- 29.72 in1006.4 mb 0.00 in0.0 mm 0.00 in0.0 mm 0.02 in0.5 mm
01:07 PM 69.6°F20.9°C 55.5°F13.1°C 61% 8.0 mph WSW12.9 kmh WSW -- 29.72 in1006.4 mb 0.00 in0.0 mm 0.00 in0.0 mm 0.02 in0.5 mm
01:12 PM 69.5°F20.8°C 55.8°F13.2°C 62% 7.0 mph WNW11.3 kmh WNW -- 29.72 in1006.4 mb 0.00 in0.0 mm 0.00 in0.0 mm 0.02 in0.5 mm
01:17 PM 69.4°F20.8°C 55.8°F13.2°C 62% 9.0 mph NNW14.5 kmh NNW -- 29.72 in1006.4 mb 0.00 in0.0 mm 0.00 in0.0 mm 0.02 in0.5 mm
01:22 PM 69.1°F20.6°C 55.9°F13.3°C 63% 3.0 mph SW4.8 kmh SW -- 29.72 in1006.4 mb 0.00 in0.0 mm 0.00 in0.0 mm 0.02 in0.5 mm
01:27 PM 69.2°F20.7°C 55.6°F13.1°C 62% 3.0 mph W4.8 kmh W -- 29.72 in1006.4 mb 0.00 in0.0 mm 0.00 in0.0 mm 0.02 in0.5 mm
01:32 PM 69.4°F20.8°C 55.3°F12.9°C 61% 4.0 mph NW6.4 kmh NW -- 29.72 in1006.4 mb 0.00 in0.0 mm 0.00 in0.0 mm 0.02 in0.5 mm
01:37 PM 69.1°F20.6°C 55.0°F12.8°C 61% 3.0 mph NW4.8 kmh NW -- 29.72 in1006.4 mb 0.00 in0.0 mm 0.00 in0.0 mm 0.02 in0.5 mm
01:42 PM 68.9°F20.5°C 54.4°F12.4°C 60% 3.0 mph WNW4.8 kmh WNW -- 29.72 in1006.4 mb 0.00 in0.0 mm 0.00 in0.0 mm 0.02 in0.5 mm
01:47 PM 68.7°F20.4°C 54.7°F12.6°C 61% 9.0 mph NW14.5 kmh NW -- 29.72 in1006.4 mb 0.00 in0.0 mm 0.00 in0.0 mm 0.02 in0.5 mm
01:52 PM 69.3°F20.7°C 54.7°F12.6°C 60% 6.0 mph W9.7 kmh W -- 29.72 in1006.4 mb 0.00 in0.0 mm 0.00 in0.0 mm 0.02 in0.5 mm
01:57 PM 69.1°F20.6°C 54.5°F12.5°C 60% 10.0 mph W16.1 kmh W -- 29.72 in1006.4 mb 0.00 in0.0 mm 0.00 in0.0 mm 0.02 in0.5 mm
02:02 PM 68.7°F20.4°C 54.2°F12.3°C 60% 10.0 mph NNW16.1 kmh NNW -- 29.73 in1006.8 mb 0.00 in0.0 mm 0.00 in0.0 mm 0.02 in0.5 mm
02:07 PM 68.5°F20.3°C 53.1°F11.7°C 58% 9.0 mph WSW14.5 kmh WSW -- 29.72 in1006.4 mb 0.00 in0.0 mm 0.00 in0.0 mm 0.02 in0.5 mm
02:12 PM 68.6°F20.3°C 53.6°F12.0°C 59% 2.0 mph SE3.2 kmh SE -- 29.73 in1006.8 mb 0.00 in0.0 mm 0.00 in0.0 mm 0.02 in0.5 mm
02:17 PM 68.9°F20.5°C 53.4°F11.9°C 58% 7.0 mph E11.3 kmh E -- 29.72 in1006.4 mb 0.00 in0.0 mm 0.00 in0.0 mm 0.02 in0.5 mm
02:22 PM 69.0°F20.6°C 52.7°F11.5°C 56% 9.0 mph SW14.5 kmh SW -- 29.72 in1006.4 mb 0.00 in0.0 mm 0.00 in0.0 mm 0.02 in0.5 mm
02:27 PM 69.1°F20.6°C 52.7°F11.5°C 56% 4.0 mph NW6.4 kmh NW -- 29.72 in1006.4 mb 0.00 in0.0 mm 0.00 in0.0 mm 0.02 in0.5 mm
02:32 PM 69.3°F20.7°C 51.8°F11.0°C 54% 2.0 mph SSE3.2 kmh SSE -- 29.73 in1006.8 mb 0.00 in0.0 mm 0.00 in0.0 mm 0.02 in0.5 mm
02:37 PM 69.0°F20.6°C 51.7°F10.9°C 54% 5.0 mph N8.0 kmh N -- 29.73 in1006.8 mb 0.00 in0.0 mm 0.00 in0.0 mm 0.02 in0.5 mm
02:42 PM 68.8°F20.4°C 51.3°F10.7°C 54% 3.0 mph S4.8 kmh S -- 29.73 in1006.8 mb 0.00 in0.0 mm 0.00 in0.0 mm 0.02 in0.5 mm
02:47 PM 69.0°F20.6°C 52.2°F11.2°C 55% 1.0 mph S1.6 kmh S -- 29.73 in1006.8 mb 0.00 in0.0 mm 0.00 in0.0 mm 0.02 in0.5 mm
02:52 PM 69.2°F20.7°C 50.8°F10.4°C 52% 2.0 mph S3.2 kmh S -- 29.73 in1006.8 mb 0.00 in0.0 mm 0.00 in0.0 mm 0.02 in0.5 mm
02:57 PM 69.3°F20.7°C 50.8°F10.4°C 52% 5.0 mph WNW8.0 kmh WNW -- 29.73 in1006.8 mb 0.00 in0.0 mm 0.00 in0.0 mm 0.02 in0.5 mm
03:02 PM 68.7°F20.4°C 50.3°F10.2°C 52% 8.0 mph 12.9 kmh -- 29.73 in1006.8 mb 0.00 in0.0 mm 0.00 in0.0 mm 0.02 in0.5 mm
03:07 PM 68.7°F20.4°C 49.8°F9.9°C 51% 6.0 mph NW9.7 kmh NW -- 29.73 in1006.8 mb 0.00 in0.0 mm 0.00 in0.0 mm 0.02 in0.5 mm
03:12 PM 68.8°F20.4°C 50.3°F10.2°C 52% 3.0 mph NNW4.8 kmh NNW -- 29.73 in1006.8 mb 0.00 in0.0 mm 0.00 in0.0 mm 0.02 in0.5 mm
03:17 PM 68.7°F20.4°C 49.8°F9.9°C 51% 2.0 mph SSW3.2 kmh SSW -- 29.73 in1006.8 mb 0.00 in0.0 mm 0.00 in0.0 mm 0.02 in0.5 mm
03:22 PM 68.7°F20.4°C 49.2°F9.6°C 50% 7.0 mph WNW11.3 kmh WNW -- 29.73 in1006.8 mb 0.00 in0.0 mm 0.00 in0.0 mm 0.02 in0.5 mm
03:27 PM 68.7°F20.4°C 49.8°F9.9°C 51% 3.0 mph SSW4.8 kmh SSW -- 29.73 in1006.8 mb 0.00 in0.0 mm 0.00 in0.0 mm 0.02 in0.5 mm
03:32 PM 68.9°F20.5°C 48.9°F9.4°C 49% 8.0 mph WSW12.9 kmh WSW -- 29.73 in1006.8 mb 0.00 in0.0 mm 0.00 in0.0 mm 0.02 in0.5 mm
03:37 PM 68.9°F20.5°C 48.9°F9.4°C 49% 4.0 mph S6.4 kmh S -- 29.73 in1006.8 mb 0.00 in0.0 mm 0.00 in0.0 mm 0.02 in0.5 mm
03:42 PM 68.9°F20.5°C 48.3°F9.1°C 48% 11.0 mph S17.7 kmh S -- 29.73 in1006.8 mb 0.00 in0.0 mm 0.00 in0.0 mm 0.02 in0.5 mm
03:47 PM 68.9°F20.5°C 48.9°F9.4°C 49% Calm Calm -- 29.73 in1006.8 mb 0.00 in0.0 mm 0.00 in0.0 mm 0.02 in0.5 mm
03:52 PM 68.7°F20.4°C 47.0°F8.3°C 46% 2.0 mph SW3.2 kmh SW -- 29.74 in1007.1 mb 0.00 in0.0 mm 0.00 in0.0 mm 0.02 in0.5 mm
03:57 PM 68.5°F20.3°C 47.4°F8.6°C 47% 6.0 mph NW9.7 kmh NW -- 29.73 in1006.8 mb 0.00 in0.0 mm 0.00 in0.0 mm 0.02 in0.5 mm
04:02 PM 68.1°F20.1°C 47.7°F8.7°C 48% 3.0 mph S4.8 kmh S -- 29.73 in1006.8 mb 0.00 in0.0 mm 0.00 in0.0 mm 0.02 in0.5 mm
04:07 PM 67.8°F19.9°C 47.3°F8.5°C 48% 3.0 mph S4.8 kmh S -- 29.74 in1007.1 mb 0.00 in0.0 mm 0.00 in0.0 mm 0.02 in0.5 mm
04:12 PM 67.6°F19.8°C 48.2°F9.0°C 50% 2.0 mph WNW3.2 kmh WNW -- 29.74 in1007.1 mb 0.00 in0.0 mm 0.00 in0.0 mm 0.02 in0.5 mm
04:17 PM 67.5°F19.7°C 47.5°F8.6°C 49% 8.0 mph S12.9 kmh S -- 29.74 in1007.1 mb 0.00 in0.0 mm 0.00 in0.0 mm 0.02 in0.5 mm
04:22 PM 67.3°F19.6°C 45.1°F7.3°C 45% 6.0 mph SW9.7 kmh SW -- 29.74 in1007.1 mb 0.00 in0.0 mm 0.00 in0.0 mm 0.02 in0.5 mm
04:27 PM 67.0°F19.4°C 45.4°F7.4°C 46% 4.0 mph NE6.4 kmh NE -- 29.75 in1007.5 mb 0.00 in0.0 mm 0.00 in0.0 mm 0.02 in0.5 mm
04:32 PM 66.8°F19.3°C 42.2°F5.7°C 41% 6.0 mph SSW9.7 kmh SSW -- 29.74 in1007.1 mb 0.00 in0.0 mm 0.00 in0.0 mm 0.02 in0.5 mm
04:37 PM 66.7°F19.3°C 42.2°F5.7°C 41% 1.0 mph SE1.6 kmh SE -- 29.75 in1007.5 mb 0.00 in0.0 mm 0.00 in0.0 mm 0.02 in0.5 mm
04:42 PM 66.5°F19.2°C 42.0°F5.6°C 41% 3.0 mph W4.8 kmh W -- 29.75 in1007.5 mb 0.00 in0.0 mm 0.00 in0.0 mm 0.02 in0.5 mm
04:47 PM 66.1°F18.9°C 42.8°F6.0°C 43% 1.0 mph S1.6 kmh S -- 29.75 in1007.5 mb 0.00 in0.0 mm 0.00 in0.0 mm 0.02 in0.5 mm
04:52 PM 65.7°F18.7°C 41.2°F5.1°C 41% 5.0 mph S8.0 kmh S -- 29.75 in1007.5 mb 0.00 in0.0 mm 0.00 in0.0 mm 0.02 in0.5 mm
04:57 PM 65.4°F18.6°C 41.7°F5.4°C 42% 1.0 mph S1.6 kmh S -- 29.75 in1007.5 mb 0.00 in0.0 mm 0.00 in0.0 mm 0.02 in0.5 mm
05:02 PM 65.1°F18.4°C 42.0°F5.6°C 43% Calm Calm -- 29.75 in1007.5 mb 0.00 in0.0 mm 0.00 in0.0 mm 0.02 in0.5 mm
05:07 PM 64.6°F18.1°C 42.1°F5.6°C 44% Calm Calm -- 29.75 in1007.5 mb 0.00 in0.0 mm 0.00 in0.0 mm 0.02 in0.5 mm
05:12 PM 64.1°F17.8°C 42.2°F5.7°C 45% 1.0 mph SE1.6 kmh SE -- 29.75 in1007.5 mb 0.00 in0.0 mm 0.00 in0.0 mm 0.02 in0.5 mm
05:17 PM 63.7°F17.6°C 41.8°F5.4°C 45% Calm Calm -- 29.75 in1007.5 mb 0.00 in0.0 mm 0.00 in0.0 mm 0.02 in0.5 mm
05:22 PM 63.4°F17.4°C 41.5°F5.3°C 45% Calm Calm -- 29.75 in1007.5 mb 0.00 in0.0 mm 0.00 in0.0 mm 0.02 in0.5 mm
05:27 PM 63.0°F17.2°C 41.7°F5.4°C 46% 1.0 mph S1.6 kmh S -- 29.75 in1007.5 mb 0.00 in0.0 mm 0.00 in0.0 mm 0.02 in0.5 mm
05:32 PM 62.6°F17.0°C 41.4°F5.2°C 46% Calm Calm -- 29.75 in1007.5 mb 0.00 in0.0 mm 0.00 in0.0 mm 0.02 in0.5 mm
05:37 PM 62.3°F16.8°C 42.2°F5.7°C 48% Calm Calm -- 29.75 in1007.5 mb 0.00 in0.0 mm 0.00 in0.0 mm 0.02 in0.5 mm
05:42 PM 61.7°F16.5°C 41.7°F5.4°C 48% Calm Calm -- 29.76 in1007.8 mb 0.00 in0.0 mm 0.00 in0.0 mm 0.02 in0.5 mm
05:47 PM 61.4°F16.3°C 41.9°F5.5°C 49% Calm Calm -- 29.76 in1007.8 mb 0.00 in0.0 mm 0.00 in0.0 mm 0.02 in0.5 mm
05:52 PM 61.2°F16.2°C 41.7°F5.4°C 49% 1.0 mph S1.6 kmh S -- 29.77 in1008.1 mb 0.00 in0.0 mm 0.00 in0.0 mm 0.02 in0.5 mm
05:57 PM 61.0°F16.1°C 42.1°F5.6°C 50% Calm Calm -- 29.77 in1008.1 mb 0.00 in0.0 mm 0.00 in0.0 mm 0.02 in0.5 mm
06:02 PM 61.0°F16.1°C 42.1°F5.6°C 50% Calm Calm -- 29.78 in1008.5 mb 0.00 in0.0 mm 0.00 in0.0 mm 0.02 in0.5 mm
06:07 PM 60.8°F16.0°C 42.9°F6.1°C 52% Calm Calm -- 29.78 in1008.5 mb 0.00 in0.0 mm 0.00 in0.0 mm 0.02 in0.5 mm
06:12 PM 60.8°F16.0°C 42.9°F6.1°C 52% Calm Calm -- 29.78 in1008.5 mb 0.00 in0.0 mm 0.00 in0.0 mm 0.02 in0.5 mm
06:17 PM 60.6°F15.9°C 43.3°F6.3°C 53% Calm Calm -- 29.78 in1008.5 mb 0.00 in0.0 mm 0.00 in0.0 mm 0.02 in0.5 mm
06:22 PM 60.2°F15.7°C 42.9°F6.1°C 53% Calm Calm -- 29.78 in1008.5 mb 0.00 in0.0 mm 0.00 in0.0 mm 0.02 in0.5 mm
06:27 PM 60.0°F15.6°C 43.3°F6.3°C 54% Calm Calm -- 29.78 in1008.5 mb 0.00 in0.0 mm 0.00 in0.0 mm 0.02 in0.5 mm
06:32 PM 59.6°F15.3°C 42.8°F6.0°C 54% Calm Calm -- 29.78 in1008.5 mb 0.00 in0.0 mm 0.00 in0.0 mm 0.02 in0.5 mm
06:37 PM 59.5°F15.3°C 43.2°F6.2°C 55% 3.0 mph NE4.8 kmh NE -- 29.78 in1008.5 mb 0.00 in0.0 mm 0.00 in0.0 mm 0.02 in0.5 mm
06:42 PM 59.0°F15.0°C 43.2°F6.2°C 56% 3.0 mph ESE4.8 kmh ESE -- 29.79 in1008.8 mb 0.00 in0.0 mm 0.00 in0.0 mm 0.02 in0.5 mm
06:47 PM 58.4°F14.7°C 43.6°F6.4°C 58% 1.0 mph S1.6 kmh S -- 29.79 in1008.8 mb 0.00 in0.0 mm 0.00 in0.0 mm 0.02 in0.5 mm
06:52 PM 58.0°F14.4°C 40.3°F4.6°C 52% 4.0 mph NW6.4 kmh NW -- 29.79 in1008.8 mb 0.00 in0.0 mm 0.00 in0.0 mm 0.02 in0.5 mm
06:57 PM 58.1°F14.5°C 37.3°F2.9°C 46% 3.0 mph WSW4.8 kmh WSW -- 29.79 in1008.8 mb 0.00 in0.0 mm 0.00 in0.0 mm 0.02 in0.5 mm
07:02 PM 58.1°F14.5°C 36.7°F2.6°C 45% 2.0 mph NW3.2 kmh NW -- 29.80 in1009.1 mb 0.00 in0.0 mm 0.00 in0.0 mm 0.02 in0.5 mm
07:07 PM 58.1°F14.5°C 36.7°F2.6°C 45% 2.0 mph SW3.2 kmh SW -- 29.80 in1009.1 mb 0.00 in0.0 mm 0.00 in0.0 mm 0.02 in0.5 mm
07:12 PM 57.7°F14.3°C 35.2°F1.8°C 43% 2.0 mph SE3.2 kmh SE -- 29.81 in1009.5 mb 0.00 in0.0 mm 0.00 in0.0 mm 0.02 in0.5 mm
07:17 PM 57.2°F14.0°C 35.9°F2.2°C 45% 2.0 mph NNW3.2 kmh NNW -- 29.80 in1009.1 mb 0.00 in0.0 mm 0.00 in0.0 mm 0.02 in0.5 mm
07:22 PM 56.8°F13.8°C 37.2°F2.9°C 48% 2.0 mph NW3.2 kmh NW -- 29.81 in1009.5 mb 0.00 in0.0 mm 0.00 in0.0 mm 0.02 in0.5 mm
07:27 PM 56.3°F13.5°C 35.1°F1.7°C 45% 2.0 mph N3.2 kmh N -- 29.81 in1009.5 mb 0.00 in0.0 mm 0.00 in0.0 mm 0.02 in0.5 mm
07:32 PM 56.1°F13.4°C 34.9°F1.6°C 45% 2.0 mph NW3.2 kmh NW -- 29.81 in1009.5 mb 0.00 in0.0 mm 0.00 in0.0 mm 0.02 in0.5 mm
07:37 PM 55.7°F13.2°C 34.0°F1.1°C 44% 3.0 mph NNE4.8 kmh NNE -- 29.81 in1009.5 mb 0.00 in0.0 mm 0.00 in0.0 mm 0.02 in0.5 mm
07:42 PM 55.3°F12.9°C 32.4°F0.2°C 42% 3.0 mph W4.8 kmh W -- 29.81 in1009.5 mb 0.00 in0.0 mm 0.00 in0.0 mm 0.02 in0.5 mm
07:47 PM 55.2°F12.9°C 33.5°F0.8°C 44% 1.0 mph NW1.6 kmh NW -- 29.82 in1009.8 mb 0.00 in0.0 mm 0.00 in0.0 mm 0.02 in0.5 mm
07:52 PM 55.1°F12.8°C 32.8°F0.4°C 43% Calm Calm -- 29.82 in1009.8 mb 0.00 in0.0 mm 0.00 in0.0 mm 0.02 in0.5 mm
07:57 PM 54.9°F12.7°C 32.6°F0.3°C 43% Calm Calm -- 29.82 in1009.8 mb 0.00 in0.0 mm 0.00 in0.0 mm 0.02 in0.5 mm
08:02 PM 54.9°F12.7°C 32.6°F0.3°C 43% 2.0 mph NW3.2 kmh NW -- 29.82 in1009.8 mb 0.00 in0.0 mm 0.00 in0.0 mm 0.02 in0.5 mm
08:07 PM 54.9°F12.7°C 32.6°F0.3°C 43% 2.0 mph S3.2 kmh S -- 29.82 in1009.8 mb 0.00 in0.0 mm 0.00 in0.0 mm 0.02 in0.5 mm
08:12 PM 54.8°F12.7°C 32.0°F0.0°C 42% 4.0 mph S6.4 kmh S -- 29.82 in1009.8 mb 0.00 in0.0 mm 0.00 in0.0 mm 0.02 in0.5 mm
08:17 PM 54.5°F12.5°C 32.3°F0.2°C 43% Calm Calm -- 29.82 in1009.8 mb 0.00 in0.0 mm 0.00 in0.0 mm 0.02 in0.5 mm
08:22 PM 54.2°F12.3°C 32.5°F0.3°C 44% Calm Calm -- 29.82 in1009.8 mb 0.00 in0.0 mm 0.00 in0.0 mm 0.02 in0.5 mm
08:27 PM 54.4°F12.4°C 32.1°F0.1°C 43% 2.0 mph WNW3.2 kmh WNW -- 29.82 in1009.8 mb 0.00 in0.0 mm 0.00 in0.0 mm 0.02 in0.5 mm
08:32 PM 54.7°F12.6°C 31.9°F-0.1°C 42% 3.0 mph NNW4.8 kmh NNW -- 29.82 in1009.8 mb 0.00 in0.0 mm 0.00 in0.0 mm 0.02 in0.5 mm
08:37 PM 55.2°F12.9°C 32.4°F0.2°C 42% 3.0 mph SW4.8 kmh SW -- 29.83 in1010.2 mb 0.00 in0.0 mm 0.00 in0.0 mm 0.02 in0.5 mm
08:42 PM 54.9°F12.7°C 31.4°F-0.3°C 41% 3.0 mph W4.8 kmh W -- 29.83 in1010.2 mb 0.00 in0.0 mm 0.00 in0.0 mm 0.02 in0.5 mm
08:47 PM 54.8°F12.7°C 32.0°F0.0°C 42% 3.0 mph W4.8 kmh W -- 29.83 in1010.2 mb 0.00 in0.0 mm 0.00 in0.0 mm 0.02 in0.5 mm
08:52 PM 54.6°F12.6°C 31.9°F-0.1°C 42% 1.0 mph SSE1.6 kmh SSE -- 29.83 in1010.2 mb 0.00 in0.0 mm 0.00 in0.0 mm 0.02 in0.5 mm
08:57 PM 54.3°F12.4°C 30.9°F-0.6°C 41% 3.0 mph WSW4.8 kmh WSW -- 29.83 in1010.2 mb 0.00 in0.0 mm 0.00 in0.0 mm 0.02 in0.5 mm
09:02 PM 54.5°F12.5°C 31.7°F-0.2°C 42% 4.0 mph NE6.4 kmh NE -- 29.83 in1010.2 mb 0.00 in0.0 mm 0.00 in0.0 mm 0.02 in0.5 mm
09:07 PM 54.3°F12.4°C 30.9°F-0.6°C 41% 2.0 mph SW3.2 kmh SW -- 29.83 in1010.2 mb 0.00 in0.0 mm 0.00 in0.0 mm 0.02 in0.5 mm
09:12 PM 54.1°F12.3°C 31.4°F-0.3°C 42% 2.0 mph NW3.2 kmh NW -- 29.83 in1010.2 mb 0.00 in0.0 mm 0.00 in0.0 mm 0.02 in0.5 mm
09:17 PM 53.9°F12.2°C 31.2°F-0.4°C 42% 3.0 mph WSW4.8 kmh WSW -- 29.83 in1010.2 mb 0.00 in0.0 mm 0.00 in0.0 mm 0.02 in0.5 mm
09:22 PM 53.9°F12.2°C 31.2°F-0.4°C 42% 2.0 mph SSW3.2 kmh SSW -- 29.83 in1010.2 mb 0.00 in0.0 mm 0.00 in0.0 mm 0.02 in0.5 mm
09:27 PM 53.7°F12.1°C 31.0°F-0.6°C 42% 2.0 mph WSW3.2 kmh WSW -- 29.83 in1010.2 mb 0.00 in0.0 mm 0.00 in0.0 mm 0.02 in0.5 mm
09:32 PM 53.5°F11.9°C 30.7°F-0.7°C 42% Calm Calm -- 29.83 in1010.2 mb 0.00 in0.0 mm 0.00 in0.0 mm 0.02 in0.5 mm
09:37 PM 53.1°F11.7°C 31.0°F-0.6°C 43% 1.0 mph SSW1.6 kmh SSW -- 29.84 in1010.5 mb 0.00 in0.0 mm 0.00 in0.0 mm 0.02 in0.5 mm
09:42 PM 52.8°F11.6°C 31.4°F-0.3°C 44% Calm Calm -- 29.83 in1010.2 mb 0.00 in0.0 mm 0.00 in0.0 mm 0.02 in0.5 mm
09:47 PM 52.7°F11.5°C 31.2°F-0.4°C 44% 1.0 mph S1.6 kmh S -- 29.83 in1010.2 mb 0.00 in0.0 mm 0.00 in0.0 mm 0.02 in0.5 mm
09:52 PM 52.3°F11.3°C 31.5°F-0.3°C 45% 2.0 mph SE3.2 kmh SE -- 29.84 in1010.5 mb 0.00 in0.0 mm 0.00 in0.0 mm 0.02 in0.5 mm
09:57 PM 52.1°F11.2°C 30.7°F-0.7°C 44% 1.0 mph SSW1.6 kmh SSW -- 29.84 in1010.5 mb 0.00 in0.0 mm 0.00 in0.0 mm 0.02 in0.5 mm
10:02 PM 51.9°F11.1°C 31.1°F-0.5°C 45% Calm Calm -- 29.84 in1010.5 mb 0.00 in0.0 mm 0.00 in0.0 mm 0.02 in0.5 mm
10:07 PM 51.7°F10.9°C 30.8°F-0.7°C 45% Calm Calm -- 29.84 in1010.5 mb 0.00 in0.0 mm 0.00 in0.0 mm 0.02 in0.5 mm
10:12 PM 51.4°F10.8°C 30.6°F-0.8°C 45% Calm Calm -- 29.84 in1010.5 mb 0.00 in0.0 mm 0.00 in0.0 mm 0.02 in0.5 mm
10:17 PM 51.3°F10.7°C 31.0°F-0.6°C 46% 1.0 mph SSW1.6 kmh SSW -- 29.84 in1010.5 mb 0.00 in0.0 mm 0.00 in0.0 mm 0.02 in0.5 mm
10:22 PM 51.2°F10.7°C 31.0°F-0.6°C 46% Calm Calm -- 29.84 in1010.5 mb 0.00 in0.0 mm 0.00 in0.0 mm 0.02 in0.5 mm
10:27 PM 51.0°F10.6°C 30.8°F-0.7°C 46% 1.0 mph S1.6 kmh S -- 29.84 in1010.5 mb 0.00 in0.0 mm 0.00 in0.0 mm 0.02 in0.5 mm
10:32 PM 50.9°F10.5°C 30.7°F-0.7°C 46% 2.0 mph SSW3.2 kmh SSW -- 29.84 in1010.5 mb 0.00 in0.0 mm 0.00 in0.0 mm 0.02 in0.5 mm
10:37 PM 50.9°F10.5°C 30.1°F-1.1°C 45% 2.0 mph S3.2 kmh S -- 29.84 in1010.5 mb 0.00 in0.0 mm 0.00 in0.0 mm 0.02 in0.5 mm
10:42 PM 50.9°F10.5°C 30.7°F-0.7°C 46% 1.0 mph S1.6 kmh S -- 29.84 in1010.5 mb 0.00 in0.0 mm 0.00 in0.0 mm 0.02 in0.5 mm
10:47 PM 50.7°F10.4°C 30.5°F-0.8°C 46% Calm Calm -- 29.84 in1010.5 mb 0.00 in0.0 mm 0.00 in0.0 mm 0.02 in0.5 mm
10:52 PM 50.8°F10.4°C 30.5°F-0.8°C 46% 3.0 mph WSW4.8 kmh WSW -- 29.84 in1010.5 mb 0.00 in0.0 mm 0.00 in0.0 mm 0.02 in0.5 mm
10:57 PM 50.7°F10.4°C 30.5°F-0.8°C 46% 2.0 mph WSW3.2 kmh WSW -- 29.84 in1010.5 mb 0.00 in0.0 mm 0.00 in0.0 mm 0.02 in0.5 mm
11:02 PM 50.6°F10.3°C 30.3°F-0.9°C 46% 2.0 mph S3.2 kmh S -- 29.84 in1010.5 mb 0.00 in0.0 mm 0.00 in0.0 mm 0.02 in0.5 mm
11:07 PM 50.5°F10.3°C 30.3°F-0.9°C 46% 1.0 mph S1.6 kmh S -- 29.84 in1010.5 mb 0.00 in0.0 mm 0.00 in0.0 mm 0.02 in0.5 mm
11:12 PM 50.4°F10.2°C 30.7°F-0.7°C 47% 2.0 mph SW3.2 kmh SW -- 29.85 in1010.8 mb 0.00 in0.0 mm 0.00 in0.0 mm 0.02 in0.5 mm
11:17 PM 50.3°F10.2°C 30.2°F-1.0°C 46% 4.0 mph WSW6.4 kmh WSW -- 29.84 in1010.5 mb 0.00 in0.0 mm 0.00 in0.0 mm 0.02 in0.5 mm
11:22 PM 50.5°F10.3°C 30.3°F-0.9°C 46% 1.0 mph S1.6 kmh S -- 29.84 in1010.5 mb 0.00 in0.0 mm 0.00 in0.0 mm 0.02 in0.5 mm
11:27 PM 50.5°F10.3°C 30.9°F-0.6°C 47% 1.0 mph SE1.6 kmh SE -- 29.84 in1010.5 mb 0.00 in0.0 mm 0.00 in0.0 mm 0.02 in0.5 mm
11:32 PM 50.6°F10.3°C 30.3°F-0.9°C 46% 1.0 mph SW1.6 kmh SW -- 29.84 in1010.5 mb 0.00 in0.0 mm 0.00 in0.0 mm 0.02 in0.5 mm
11:37 PM 50.6°F10.3°C 30.3°F-0.9°C 46% Calm Calm -- 29.84 in1010.5 mb 0.00 in0.0 mm 0.00 in0.0 mm 0.02 in0.5 mm
11:42 PM 50.3°F10.2°C 30.2°F-1.0°C 46% 1.0 mph SSW1.6 kmh SSW -- 29.84 in1010.5 mb 0.00 in0.0 mm 0.00 in0.0 mm 0.02 in0.5 mm
11:47 PM 50.1°F10.1°C 30.6°F-0.8°C 47% 3.0 mph WNW4.8 kmh WNW -- 29.84 in1010.5 mb 0.00 in0.0 mm 0.00 in0.0 mm 0.02 in0.5 mm
11:52 PM 49.9°F9.9°C 30.7°F-0.7°C 48% 4.0 mph N6.4 kmh N -- 29.84 in1010.5 mb 0.00 in0.0 mm 0.00 in0.0 mm 0.03 in0.8 mm
11:57 PM 49.7°F9.8°C 30.6°F-0.8°C 48% 1.0 mph S1.6 kmh S -- 29.84 in1010.5 mb 0.00 in0.0 mm 0.00 in0.0 mm 0.03 in0.8 mm